Time;durP1;ratioP1;P1;durP2;ratioP2;P2;SDS_P1;SDS_P2;PMS_P1;PMS_P2;Temp;Humidity;BMP_temperature;BMP_pressure;BME280_temperature;BME280_humidity;BME280_pressure;Samples;Min_cycle;Max_cycle;Signal;HPM_P1;HPM_P2
2022/06/28 00:00:01;;;;;;;10.18;8.30;;;;;;;15.86;100.00;96711.50;4994388;28;20039;-78
2022/06/28 00:02:26;;;;;;;10.77;9.15;;;;;;;15.85;100.00;96712.50;4979294;28;20105;-79
2022/06/28 00:04:52;;;;;;;10.88;9.13;;;;;;;15.84;100.00;96721.47;4999319;28;20499;-78
2022/06/28 00:07:18;;;;;;;12.43;8.38;;;;;;;15.80;100.00;96721.03;5002069;28;20563;-78
2022/06/28 00:09:44;;;;;;;9.75;8.65;;;;;;;15.78;100.00;96723.00;4999806;28;20034;-79
2022/06/28 00:12:10;;;;;;;8.52;7.63;;;;;;;15.78;100.00;96715.06;4998912;28;20073;-79
2022/06/28 00:17:21;;;;;;;10.00;7.78;;;;;;;15.74;100.00;96727.03;5000586;28;20034;-79
2022/06/28 00:19:46;;;;;;;17.48;8.90;;;;;;;15.65;100.00;96734.19;5009332;28;20661;-78
2022/06/28 00:22:12;;;;;;;10.43;9.10;;;;;;;15.64;100.00;96732.56;4997724;28;20049;-78
2022/06/28 00:24:38;;;;;;;11.85;9.60;;;;;;;15.63;100.00;96746.81;4995213;28;20034;-78
2022/06/28 00:27:04;;;;;;;12.25;9.23;;;;;;;15.70;100.00;96745.13;5001258;28;20061;-78
2022/06/28 00:29:29;;;;;;;11.48;10.02;;;;;;;15.70;100.00;96747.78;5001693;28;20052;-77
2022/06/28 00:31:55;;;;;;;14.15;10.95;;;;;;;15.67;100.00;96750.78;4978435;28;20037;-79
2022/06/28 00:34:22;;;;;;;19.40;12.80;;;;;;;15.57;100.00;96752.81;5005745;28;20042;-78
2022/06/28 00:36:48;;;;;;;18.60;12.52;;;;;;;15.61;100.00;96770.03;4981632;28;20477;-78
2022/06/28 00:39:14;;;;;;;14.23;12.73;;;;;;;15.57;100.00;96769.56;5001505;28;20035;-79
2022/06/28 00:41:41;;;;;;;15.40;12.98;;;;;;;15.52;100.00;96781.69;5005456;28;20050;-79
2022/06/28 00:44:09;;;;;;;14.43;13.02;;;;;;;15.59;100.00;96789.75;4996379;28;20133;-78
2022/06/28 00:46:35;;;;;;;16.15;13.07;;;;;;;15.67;100.00;96790.56;5002808;28;20102;-79
2022/06/28 00:49:01;;;;;;;17.73;13.45;;;;;;;15.58;100.00;96794.22;4997298;28;20066;-79
2022/06/28 00:51:27;;;;;;;20.10;14.38;;;;;;;15.55;100.00;96802.53;4986563;28;20030;-79
2022/06/28 00:53:54;;;;;;;21.83;15.27;;;;;;;15.53;100.00;96793.94;4989138;28;20072;-78
2022/06/28 00:56:20;;;;;;;27.73;15.02;;;;;;;15.43;100.00;96793.38;4985942;28;20038;-79
2022/06/28 00:58:46;;;;;;;21.25;14.65;;;;;;;15.40;100.00;96797.19;4993828;28;20034;-78
2022/06/28 01:01:12;;;;;;;16.10;14.43;;;;;;;15.39;100.00;96807.94;4996070;28;20061;-78
2022/06/28 01:03:38;;;;;;;15.43;13.82;;;;;;;15.38;100.00;96804.47;4984333;28;20133;-79
2022/06/28 01:06:05;;;;;;;17.27;15.50;;;;;;;15.41;100.00;96803.31;5007120;28;20559;-79
2022/06/28 01:08:31;;;;;;;16.70;14.93;;;;;;;15.39;100.00;96806.13;4985036;28;20098;-78
2022/06/28 01:11:18;;;;;;;17.25;15.23;;;;;;;15.41;100.00;96800.66;5001678;28;20065;-79
2022/06/28 01:13:55;;;;;;;17.08;15.18;;;;;;;15.49;100.00;96800.59;4994331;28;20052;-79
2022/06/28 01:16:22;;;;;;;15.20;13.50;;;;;;;15.52;100.00;96787.78;5000568;28;20033;-79
2022/06/28 01:18:51;;;;;;;15.80;14.18;;;;;;;15.55;100.00;96786.63;4997572;28;20113;-79
2022/06/28 01:21:38;;;;;;;14.32;12.82;;;;;;;15.46;100.00;96779.72;5000592;28;20026;-79
2022/06/28 01:24:05;;;;;;;16.58;12.50;;;;;;;15.48;100.00;96775.91;4999933;28;20045;-78
2022/06/28 01:27:01;;;;;;;16.05;13.02;;;;;;;15.38;100.00;96779.78;5002962;28;20046;-78
2022/06/28 01:29:28;;;;;;;13.95;12.45;;;;;;;15.36;100.00;96777.34;5000950;28;20030;-79
2022/06/28 01:32:05;;;;;;;13.13;11.65;;;;;;;15.42;100.00;96776.59;4989229;28;20042;-79
2022/06/28 01:34:33;;;;;;;13.70;12.00;;;;;;;15.41;100.00;96776.78;5000166;28;20030;-79
2022/06/28 01:36:59;;;;;;;16.92;12.25;;;;;;;15.40;100.00;96769.84;5003328;28;20038;-79
2022/06/28 01:39:28;;;;;;;14.90;12.25;;;;;;;15.36;100.00;96771.19;5008808;28;20061;-79
2022/06/28 01:41:53;;;;;;;13.30;11.82;;;;;;;15.33;100.00;96772.38;4984210;28;20026;-78
2022/06/28 01:44:24;;;;;;;13.88;11.23;;;;;;;15.38;100.00;96771.84;5010336;28;20029;-78
2022/06/28 01:47:06;;;;;;;12.38;11.07;;;;;;;15.36;100.00;96772.03;5005962;28;20050;-77
2022/06/28 01:49:53;;;;;;;12.65;11.23;;;;;;;15.32;100.00;96758.31;5001849;28;20108;-79
2022/06/28 01:52:20;;;;;;;13.32;11.25;;;;;;;15.29;100.00;96760.47;4977222;28;20034;-78
2022/06/28 01:54:47;;;;;;;15.25;12.32;;;;;;;15.27;100.00;96771.25;5002990;28;20138;-79
2022/06/28 01:57:15;;;;;;;13.95;11.75;;;;;;;15.26;100.00;96774.09;4990616;28;20056;-77
2022/06/28 01:59:48;;;;;;;15.27;13.13;;;;;;;15.21;100.00;96774.59;4997336;28;20104;-78
2022/06/28 02:02:27;;;;;;;17.33;13.77;;;;;;;15.21;100.00;96773.78;5000895;28;20040;-78
2022/06/28 02:05:12;;;;;;;19.17;13.55;;;;;;;15.18;100.00;96779.41;4996626;28;20724;-77
2022/06/28 02:07:49;;;;;;;25.25;13.65;;;;;;;15.15;100.00;96785.06;4993090;28;20069;-80
2022/06/28 02:10:18;;;;;;;16.95;15.23;;;;;;;15.16;100.00;96792.84;4994790;28;20092;-78
2022/06/28 02:12:45;;;;;;;17.40;12.35;;;;;;;15.17;100.00;96797.16;5009054;28;20077;-78
2022/06/28 02:15:12;;;;;;;22.13;19.83;;;;;;;15.16;100.00;96792.03;4981952;28;20034;-78
2022/06/28 02:17:38;;;;;;;17.17;15.00;;;;;;;15.11;100.00;96789.88;5005614;28;20037;-78
2022/06/28 02:20:05;;;;;;;15.02;12.75;;;;;;;15.06;100.00;96802.84;4995300;28;20062;-77
2022/06/28 02:22:31;;;;;;;15.73;12.25;;;;;;;15.07;100.00;96801.84;4998372;28;20026;-78
2022/06/28 02:24:57;;;;;;;14.55;13.05;;;;;;;14.90;100.00;96798.44;4988238;28;20030;-78
2022/06/28 02:27:22;;;;;;;17.23;12.02;;;;;;;14.76;100.00;96807.13;4994059;28;20034;-77
2022/06/28 02:29:48;;;;;;;14.68;12.98;;;;;;;14.69;100.00;96804.31;5004457;28;20524;-77
2022/06/28 02:32:14;;;;;;;20.30;13.07;;;;;;;14.51;100.00;96812.47;4985390;28;20033;-77
2022/06/28 02:40:22;;;;;;;25.45;15.73;;;;;;;14.60;100.00;96823.88;5000032;28;20569;-78
2022/06/28 02:42:49;;;;;;;21.23;15.35;;;;;;;14.55;100.00;96815.59;4998139;28;20030;-78
2022/06/28 02:45:16;;;;;;;17.92;15.00;;;;;;;14.59;100.00;96816.94;4991409;28;20026;-77
2022/06/28 02:47:42;;;;;;;18.02;13.60;;;;;;;14.64;100.00;96825.16;5006993;28;20041;-78
2022/06/28 02:50:09;;;;;;;27.13;13.40;;;;;;;14.62;100.00;96824.53;4999101;28;20140;-78
2022/06/28 02:52:35;;;;;;;29.48;12.88;;;;;;;14.58;100.00;96820.56;5004820;28;20026;-78
2022/06/28 02:55:01;;;;;;;15.85;12.90;;;;;;;14.64;100.00;96822.53;4998930;28;20026;-77
2022/06/28 02:57:27;;;;;;;14.20;12.57;;;;;;;14.68;100.00;96826.47;5010566;28;20034;-78
2022/06/28 02:59:53;;;;;;;14.43;11.85;;;;;;;14.66;100.00;96823.19;4998870;28;20109;-78
2022/06/28 03:02:19;;;;;;;16.65;11.75;;;;;;;14.71;100.00;96828.78;5002860;28;20037;-78
2022/06/28 03:04:45;;;;;;;14.70;11.25;;;;;;;14.68;100.00;96823.81;4997028;28;20025;-78
2022/06/28 03:07:12;;;;;;;15.68;11.75;;;;;;;14.63;100.00;96830.66;5007668;28;20022;-79
2022/06/28 03:09:37;;;;;;;12.93;10.82;;;;;;;14.68;100.00;96829.13;4977726;28;20456;-78
2022/06/28 03:12:06;;;;;;;12.88;11.48;;;;;;;14.70;100.00;96835.09;4980555;28;20037;-77
2022/06/28 03:14:32;;;;;;;12.27;11.02;;;;;;;14.77;100.00;96830.75;4978657;28;20030;-78
2022/06/28 03:16:58;;;;;;;14.23;10.82;;;;;;;14.82;100.00;96830.22;5009409;28;20050;-78
2022/06/28 03:19:24;;;;;;;13.18;10.38;;;;;;;14.85;100.00;96827.25;4990347;28;20010;-78
2022/06/28 03:21:50;;;;;;;11.63;10.25;;;;;;;14.87;100.00;96819.16;4988513;28;20018;-78
2022/06/28 03:24:16;;;;;;;13.27;10.77;;;;;;;14.82;100.00;96814.34;4980133;28;20109;-78
2022/06/28 03:26:43;;;;;;;12.13;9.73;;;;;;;14.87;100.00;96819.16;4996059;28;20034;-78
2022/06/28 03:29:09;;;;;;;12.27;9.30;;;;;;;14.78;100.00;96816.50;5002975;28;20058;-78
2022/06/28 03:31:34;;;;;;;13.52;9.45;;;;;;;14.80;100.00;96813.72;4984892;28;20071;-78
2022/06/28 03:34:00;;;;;;;9.90;7.43;;;;;;;14.73;100.00;96812.75;4980292;28;20034;-78
2022/06/28 03:36:28;;;;;;;10.32;7.95;;;;;;;14.75;100.00;96808.91;4999787;28;20022;-78
2022/06/28 03:39:10;;;;;;;10.23;7.95;;;;;;;14.65;100.00;96805.63;4976046;28;20042;-78
2022/06/28 03:41:46;;;;;;;10.43;7.55;;;;;;;14.66;100.00;96807.31;4999783;28;20029;-79
2022/06/28 03:44:11;;;;;;;10.77;8.27;;;;;;;14.78;100.00;96808.56;4993971;28;20083;-78
2022/06/28 03:46:37;;;;;;;11.27;7.65;;;;;;;14.84;100.00;96809.72;4992860;28;20048;-79
2022/06/28 03:49:23;;;;;;;8.23;6.47;;;;;;;14.90;100.00;96797.63;5003319;28;20492;-80
2022/06/28 03:51:52;;;;;;;7.65;5.88;;;;;;;15.00;100.00;96803.53;4983545;28;20030;-80
2022/06/28 03:54:25;;;;;;;9.52;6.40;;;;;;;15.00;100.00;96799.06;5003044;28;20113;-79
2022/06/28 03:57:17;;;;;;;8.25;6.50;;;;;;;14.98;100.00;96800.22;5000506;28;20042;-80
2022/06/28 03:59:43;;;;;;;8.85;6.20;;;;;;;15.04;100.00;96804.81;4986561;28;20066;-80
2022/06/28 04:02:09;;;;;;;10.80;6.78;;;;;;;15.13;100.00;96798.50;5006395;28;20054;-77
2022/06/28 04:04:35;;;;;;;18.83;12.23;;;;;;;15.20;100.00;96796.81;5006578;28;20040;-77
2022/06/28 04:07:01;;;;;;;9.40;7.68;;;;;;;15.20;100.00;96790.69;5004451;28;20065;-80
2022/06/28 04:09:27;;;;;;;8.32;6.15;;;;;;;15.32;100.00;96791.91;4984700;28;20042;-79
2022/06/28 04:11:56;;;;;;;6.85;5.32;;;;;;;15.46;100.00;96782.38;4984959;28;20370;-80
2022/06/28 04:14:22;;;;;;;8.80;5.88;;;;;;;15.58;100.00;96791.59;4987792;28;20034;-79
2022/06/28 04:16:48;;;;;;;9.38;7.68;;;;;;;15.55;100.00;96791.94;5002560;28;20049;-78
2022/06/28 04:19:21;;;;;;;;;;;;;;;15.44;100.00;96795.00;5003803;28;20026;-79
2022/06/28 04:21:48;;;;;;;10.05;8.57;;;;;;;15.32;100.00;96795.41;5001807;28;19928;-79
2022/06/28 04:24:19;;;;;;;10.68;8.73;;;;;;;15.34;100.00;96800.53;4987735;28;20030;-80
2022/06/28 04:27:05;;;;;;;12.25;9.50;;;;;;;15.27;100.00;96789.81;5001135;28;20038;-79
2022/06/28 04:29:31;;;;;;;11.07;8.82;;;;;;;15.40;100.00;96793.72;5002517;28;20041;-79
2022/06/28 04:31:57;;;;;;;12.10;9.13;;;;;;;15.50;100.00;96803.06;4985982;28;20089;-79
2022/06/28 04:34:23;;;;;;;10.30;8.65;;;;;;;15.59;100.00;96792.41;5001141;28;20115;-79
2022/06/28 04:36:52;;;;;;;11.63;8.15;;;;;;;15.57;100.00;96792.59;5012759;28;20033;-78
2022/06/28 04:39:18;;;;;;;14.60;9.48;;;;;;;15.57;100.00;96801.38;5002891;28;20069;-80
2022/06/28 04:42:13;;;;;;;10.98;9.82;;;;;;;15.49;100.00;96793.47;5001277;28;20031;-80
2022/06/28 04:44:41;;;;;;;11.18;9.98;;;;;;;15.53;100.00;96791.31;4990730;28;20030;-80
2022/06/28 04:47:11;;;;;;;11.23;10.05;;;;;;;15.57;100.00;96777.50;4999829;28;20034;-80
2022/06/28 04:49:38;;;;;;;10.77;9.55;;;;;;;15.67;100.00;96790.56;4981560;28;20030;-80
2022/06/28 04:52:05;;;;;;;11.43;9.68;;;;;;;15.60;100.00;96797.53;5003979;28;20112;-79
2022/06/28 04:54:37;;;;;;;10.63;9.43;;;;;;;15.67;100.00;96803.00;5004719;28;20065;-79
2022/06/28 04:57:21;;;;;;;27.38;10.00;;;;;;;15.83;100.00;96799.38;4979718;28;20034;-80
2022/06/28 04:59:55;;;;;;;13.82;9.50;;;;;;;15.80;100.00;96808.53;4997658;28;20070;-80
2022/06/28 05:02:38;;;;;;;12.02;10.10;;;;;;;15.97;100.00;96811.88;5005728;28;20030;-79
2022/06/28 05:05:08;;;;;;;15.35;10.57;;;;;;;15.91;100.00;96807.28;4984253;28;20105;-79
2022/06/28 05:07:36;;;;;;;14.25;10.07;;;;;;;16.03;100.00;96811.16;5004967;28;20027;-78
2022/06/28 05:10:06;;;;;;;17.35;9.45;;;;;;;15.95;100.00;96803.25;4981373;28;20177;-80
2022/06/28 05:12:34;;;;;;;12.88;9.68;;;;;;;16.15;100.00;96806.22;5004011;28;20030;-80
2022/06/28 05:15:00;;;;;;;9.68;7.38;;;;;;;16.14;100.00;96810.72;5003505;28;20038;-80
2022/06/28 05:17:40;;;;;;;10.60;9.02;;;;;;;16.37;100.00;96800.06;5006704;28;20061;-79
2022/06/28 05:20:07;;;;;;;10.32;8.38;;;;;;;16.49;100.00;96801.22;4990769;28;20021;-78
2022/06/28 05:22:32;;;;;;;9.15;7.97;;;;;;;16.69;100.00;96784.75;4996548;28;20039;-79
2022/06/28 05:25:21;;;;;;;7.75;6.80;;;;;;;17.06;100.00;96769.72;5003608;28;20042;-79
2022/06/28 05:27:48;;;;;;;8.73;6.80;;;;;;;16.97;100.00;96777.00;4997663;28;20034;-80
2022/06/28 05:30:14;;;;;;;9.25;7.25;;;;;;;16.82;100.00;96789.47;4980344;28;20060;-79
2022/06/28 05:32:40;;;;;;;8.32;7.05;;;;;;;16.83;100.00;96791.09;4998431;28;20034;-80
2022/06/28 05:35:06;;;;;;;8.60;6.28;;;;;;;16.88;100.00;96781.56;4999131;28;20094;-80
2022/06/28 05:37:32;;;;;;;10.07;5.93;;;;;;;17.29;100.00;96783.69;5002649;28;20026;-80
2022/06/28 05:39:58;;;;;;;7.47;6.00;;;;;;;17.40;100.00;96777.03;4997459;28;20480;-79
2022/06/28 05:42:24;;;;;;;7.40;5.60;;;;;;;17.16;100.00;96770.25;4999421;28;20058;-80
2022/06/28 05:44:50;;;;;;;7.25;6.13;;;;;;;17.00;100.00;96754.53;4987143;28;20031;-80
2022/06/28 05:47:16;;;;;;;7.35;6.55;;;;;;;16.88;100.00;96747.03;5005012;28;20034;-80
2022/06/28 05:49:42;;;;;;;8.45;6.55;;;;;;;17.17;100.00;96748.81;5011726;28;20022;-80
2022/06/28 05:52:08;;;;;;;10.05;8.93;;;;;;;17.51;100.00;96744.66;4992024;28;20121;-80
2022/06/28 05:54:34;;;;;;;10.27;6.65;;;;;;;17.76;100.00;96741.59;4991608;28;20031;-80
2022/06/28 05:57:01;;;;;;;9.00;6.78;;;;;;;17.61;100.00;96755.78;4984929;28;20037;-78
2022/06/28 05:59:27;;;;;;;10.40;6.57;;;;;;;17.30;100.00;96749.94;4991404;28;20069;-82
2022/06/28 06:01:55;;;;;;;5.97;4.60;;;;;;;17.15;100.00;96755.31;4991382;28;20638;-80
2022/06/28 06:04:27;;;;;;;6.32;4.70;;;;;;;17.61;100.00;96742.50;4995266;28;20077;-78
2022/06/28 06:06:54;;;;;;;9.68;4.75;;;;;;;18.18;100.00;96739.91;4992672;28;20041;-79
2022/06/28 06:09:20;;;;;;;7.50;4.40;;;;;;;18.14;100.00;96737.63;5003248;28;20019;-78
2022/06/28 06:11:47;;;;;;;7.07;5.22;;;;;;;18.38;100.00;96731.03;4977691;28;20066;-79
2022/06/28 06:14:17;;;;;;;6.43;4.68;;;;;;;18.86;100.00;96729.44;4992497;28;21778;-80
2022/06/28 06:16:44;;;;;;;6.13;4.88;;;;;;;18.31;100.00;96730.16;4987120;28;20038;-79
2022/06/28 06:19:09;;;;;;;7.57;4.88;;;;;;;19.00;100.00;96723.13;4977999;28;20089;-78
2022/06/28 06:21:36;;;;;;;7.38;4.75;;;;;;;19.16;100.00;96721.94;4987292;28;20109;-78
2022/06/28 06:24:02;;;;;;;7.25;5.30;;;;;;;19.18;100.00;96722.56;4989501;28;20680;-79
2022/06/28 06:26:58;;;;;;;5.65;3.90;;;;;;;19.67;100.00;96716.09;4995626;28;20073;-80
2022/06/28 06:29:24;;;;;;;7.25;4.22;;;;;;;19.59;100.00;96710.94;4991770;28;20041;-79
2022/06/28 06:31:50;;;;;;;5.25;3.90;;;;;;;19.82;100.00;96719.41;4995026;28;20057;-78
2022/06/28 06:34:51;;;;;;;5.43;3.95;;;;;;;20.16;100.00;96717.53;5009928;28;20034;-79
2022/06/28 06:37:17;;;;;;;5.90;4.45;;;;;;;20.02;100.00;96725.56;4996291;28;20061;-79
2022/06/28 06:39:42;;;;;;;7.63;3.75;;;;;;;19.89;100.00;96741.56;4992882;28;20066;-80
2022/06/28 06:42:08;;;;;;;5.78;3.60;;;;;;;20.95;100.00;96736.00;4994461;28;20066;-80
2022/06/28 06:44:34;;;;;;;4.75;3.08;;;;;;;21.44;100.00;96733.75;4981734;28;20030;-80
2022/06/28 06:47:02;;;;;;;6.03;3.97;;;;;;;21.02;100.00;96740.50;4993087;28;20064;-79
2022/06/28 06:49:28;;;;;;;6.30;3.35;;;;;;;20.67;100.00;96743.53;4994663;28;20558;-79
2022/06/28 06:51:54;;;;;;;5.88;3.30;;;;;;;20.34;100.00;96741.72;5001453;28;20030;-78
2022/06/28 06:54:20;;;;;;;4.35;2.88;;;;;;;19.72;100.00;96737.66;4990735;28;20034;-79
2022/06/28 06:56:46;;;;;;;11.13;8.57;;;;;;;19.71;100.00;96739.50;5003406;28;20034;-78
2022/06/28 06:59:14;;;;;;;4.55;3.13;;;;;;;19.60;100.00;96744.59;4992301;28;20511;-77
2022/06/28 07:01:40;;;;;;;3.85;2.80;;;;;;;19.66;100.00;96743.81;4972692;28;20514;-77
2022/06/28 07:04:08;;;;;;;4.45;2.78;;;;;;;19.35;100.00;96733.66;4991587;28;20088;-78
2022/06/28 07:06:35;;;;;;;3.78;2.80;;;;;;;19.35;100.00;96729.19;4979189;28;20165;-78
2022/06/28 07:09:02;;;;;;;5.65;2.88;;;;;;;19.31;100.00;96731.44;4974342;28;20523;-78
2022/06/28 07:11:30;;;;;;;4.80;3.00;;;;;;;19.39;100.00;96733.06;4992836;28;20440;-78
2022/06/28 07:13:55;;;;;;;4.70;2.63;;;;;;;19.15;100.00;96707.81;4994186;28;20029;-79
2022/06/28 07:16:23;;;;;;;4.65;2.85;;;;;;;18.88;100.00;96706.06;4991730;28;20034;-79
2022/06/28 07:18:49;;;;;;;4.30;2.72;;;;;;;18.97;100.00;96705.69;4978215;28;20029;-80
2022/06/28 07:21:15;;;;;;;5.75;2.75;;;;;;;19.15;100.00;96707.81;5002100;28;20499;-81
2022/06/28 07:23:42;;;;;;;4.43;2.75;;;;;;;19.20;100.00;96712.50;4997554;28;20034;-83
2022/06/28 07:26:08;;;;;;;5.53;2.90;;;;;;;19.33;100.00;96717.88;4979003;28;20034;-80
2022/06/28 07:28:34;;;;;;;4.55;3.03;;;;;;;19.33;100.00;96725.88;4993754;28;20030;-80
2022/06/28 07:31:00;;;;;;;4.35;2.70;;;;;;;19.36;100.00;96730.00;4995456;28;20388;-81
2022/06/28 07:33:26;;;;;;;6.90;4.20;;;;;;;19.63;100.00;96725.50;4978671;28;20389;-80
2022/06/28 07:35:52;;;;;;;7.50;3.72;;;;;;;19.68;100.00;96720.41;4993735;28;20033;-81
2022/06/28 07:38:19;;;;;;;6.60;3.65;;;;;;;19.62;100.00;96707.88;4978424;28;20029;-81
2022/06/28 07:41:03;;;;;;;3.80;2.67;;;;;;;19.73;100.00;96707.28;4991506;28;20057;-80
2022/06/28 07:43:58;;;;;;;5.47;3.42;;;;;;;19.71;100.00;96703.97;4995812;28;20042;-81
2022/06/28 07:46:28;;;;;;;5.75;3.33;;;;;;;19.25;100.00;96702.91;4982608;28;20041;-79
2022/06/28 07:48:54;;;;;;;5.25;3.28;;;;;;;19.02;100.00;96703.25;5005387;28;20033;-78
2022/06/28 07:54:06;;;;;;;5.32;2.75;;;;;;;19.61;100.00;96691.03;4992392;28;20046;-81
2022/06/28 07:56:49;;;;;;;4.53;3.08;;;;;;;19.51;100.00;96688.75;4977524;28;20488;-80
2022/06/28 07:59:16;;;;;;;4.72;3.40;;;;;;;19.14;100.00;96689.31;4992697;28;20042;-80
2022/06/28 08:01:42;;;;;;;5.65;3.47;;;;;;;18.53;100.00;96685.59;4994856;28;20033;-77
2022/06/28 08:04:17;;;;;;;4.82;3.65;;;;;;;18.75;100.00;96677.53;4995206;28;20034;-80
2022/06/28 08:06:43;;;;;;;9.68;4.18;;;;;;;18.59;100.00;96673.34;4986461;28;20044;-81
2022/06/28 08:09:09;;;;;;;5.57;3.67;;;;;;;18.79;100.00;96671.59;4981089;28;20044;-81
2022/06/28 08:11:35;;;;;;;4.25;2.83;;;;;;;18.80;100.00;96669.75;4974594;28;20025;-81
2022/06/28 08:14:02;;;;;;;9.63;3.72;;;;;;;18.59;100.00;96676.81;4989998;28;20238;-79
2022/06/28 08:16:28;;;;;;;6.80;3.15;;;;;;;18.45;100.00;96675.13;4974826;28;20061;-81
2022/06/28 08:18:54;;;;;;;4.28;3.15;;;;;;;18.75;100.00;96674.88;4991656;28;20034;-81
2022/06/28 08:21:30;;;;;;;5.93;3.65;;;;;;;18.45;100.00;96669.81;4986863;28;20038;-81
2022/06/28 08:23:55;;;;;;;7.63;3.92;;;;;;;18.58;100.00;96658.41;4988887;28;20515;-79
2022/06/28 08:26:21;;;;;;;6.80;3.45;;;;;;;18.29;100.00;96641.66;4992917;28;20495;-81
2022/06/28 08:28:47;;;;;;;4.80;2.88;;;;;;;18.04;100.00;96629.84;4984934;28;20042;-80
2022/06/28 08:31:13;;;;;;;4.70;2.42;;;;;;;17.85;100.00;96620.75;4991429;28;20026;-79
2022/06/28 08:33:38;;;;;;;2.95;1.90;;;;;;;17.87;100.00;96605.41;4990087;28;20030;-81
2022/06/28 08:36:04;;;;;;;6.32;2.22;;;;;;;17.90;100.00;96613.81;4973027;28;20492;-80
2022/06/28 08:38:30;;;;;;;5.55;2.30;;;;;;;18.00;100.00;96631.25;5000969;28;20023;-78
2022/06/28 08:40:57;;;;;;;3.10;1.67;;;;;;;18.12;100.00;96637.69;4998457;28;20022;-82
2022/06/28 08:43:23;;;;;;;3.92;1.88;;;;;;;18.38;100.00;96668.97;4982312;28;20038;-82
2022/06/28 08:45:49;;;;;;;3.80;1.92;;;;;;;18.54;100.00;96663.31;4994816;28;20388;-81
2022/06/28 08:48:21;;;;;;;4.18;2.05;;;;;;;18.76;100.00;96681.84;4990384;28;20447;-80
2022/06/28 08:50:52;;;;;;;4.72;1.77;;;;;;;18.87;100.00;96661.78;4995157;28;20037;-80
2022/06/28 08:53:20;;;;;;;4.03;2.28;;;;;;;19.24;100.00;96636.41;4993738;28;20547;-80
2022/06/28 08:55:48;;;;;;;5.65;3.17;;;;;;;20.14;100.00;96639.47;5005945;28;20498;-80
2022/06/28 08:58:14;;;;;;;3.42;1.98;;;;;;;20.73;100.00;96646.47;4973421;28;20098;-79
2022/06/28 09:00:40;;;;;;;3.45;2.33;;;;;;;21.10;100.00;96639.47;4988259;28;20327;-81
2022/06/28 09:03:06;;;;;;;3.72;2.10;;;;;;;21.80;100.00;96631.34;4991960;28;20038;-80
2022/06/28 09:05:32;;;;;;;2.22;1.55;;;;;;;22.32;100.00;96623.00;4991850;28;20060;-80
2022/06/28 09:07:58;;;;;;;3.58;1.73;;;;;;;22.63;100.00;96632.72;4998379;28;20057;-81
2022/06/28 09:10:25;;;;;;;4.38;1.90;;;;;;;22.92;100.00;96638.34;5007868;28;20030;-79
2022/06/28 09:13:07;;;;;;;5.10;2.00;;;;;;;22.95;97.87;96641.41;5005662;28;20057;-82
2022/06/28 09:15:58;;;;;;;3.53;1.95;;;;;;;23.23;96.61;96643.47;4985572;28;20461;-81
2022/06/28 09:18:46;;;;;;;4.70;1.80;;;;;;;22.01;100.00;96648.03;4999777;28;20682;-80
2022/06/28 09:21:15;;;;;;;2.90;1.65;;;;;;;22.43;100.00;96645.53;4988331;28;20151;-82
2022/06/28 09:23:44;;;;;;;2.65;1.60;;;;;;;22.35;96.95;96642.13;4993374;28;20073;-80
2022/06/28 09:26:13;;;;;;;4.78;1.42;;;;;;;22.87;92.05;96635.50;4982100;28;20038;-81
2022/06/28 09:28:42;;;;;;;2.95;1.30;;;;;;;22.51;100.00;96634.53;5001090;28;20040;-81
2022/06/28 09:31:22;;;;;;;4.82;1.88;;;;;;;22.51;100.00;96627.31;4991125;28;20042;-78
2022/06/28 09:34:08;;;;;;;2.40;1.35;;;;;;;22.69;100.00;96625.66;4981739;28;20038;-81
2022/06/28 09:36:40;;;;;;;3.65;1.60;;;;;;;23.20;96.42;96624.34;4987508;28;20026;-81
2022/06/28 09:39:14;;;;;;;2.67;1.60;;;;;;;23.54;94.10;96625.47;4986007;28;20042;-81
2022/06/28 09:41:52;;;;;;;2.70;1.38;;;;;;;23.25;92.38;96625.28;4969728;28;20042;-81
2022/06/28 09:44:24;;;;;;;3.00;1.52;;;;;;;23.54;84.95;96620.09;4970233;28;20060;-80
2022/06/28 09:46:51;;;;;;;2.10;1.33;;;;;;;23.68;87.23;96632.28;4985181;28;20165;-81
2022/06/28 09:49:16;;;;;;;2.40;1.60;;;;;;;22.94;89.23;96637.09;4992495;28;20054;-81
2022/06/28 09:51:44;;;;;;;2.78;1.70;;;;;;;23.05;92.60;96643.56;4976255;28;20469;-81
2022/06/28 09:54:10;;;;;;;4.57;1.70;;;;;;;23.94;88.28;96641.75;4978126;28;20030;-80
2022/06/28 09:56:47;;;;;;;2.28;1.25;;;;;;;23.97;85.01;96656.56;4977559;28;20117;-80
2022/06/28 09:59:13;;;;;;;3.40;1.67;;;;;;;22.57;93.68;96652.41;4988681;28;20206;-80
2022/06/28 10:01:40;;;;;;;4.13;1.70;;;;;;;22.78;95.90;96649.25;4998899;28;20165;-81
2022/06/28 10:04:06;;;;;;;2.58;1.50;;;;;;;23.56;81.01;96633.28;4992790;28;20081;-80
2022/06/28 10:06:33;;;;;;;2.45;1.52;;;;;;;23.62;85.41;96641.22;4991043;28;20113;-79
2022/06/28 10:09:08;;;;;;;2.95;1.52;;;;;;;23.76;85.61;96631.09;4992614;28;20754;-81
2022/06/28 10:17:33;;;;;;;5.15;1.77;;;;;;;23.42;78.49;96617.38;4993698;28;20070;-81
2022/06/28 10:20:01;;;;;;;3.65;1.77;;;;;;;23.54;80.76;96617.41;4986249;28;20407;-82
2022/06/28 10:22:27;;;;;;;2.80;1.63;;;;;;;24.27;77.42;96621.50;4988768;28;20994;-81
2022/06/28 10:24:58;;;;;;;3.05;1.20;;;;;;;24.19;73.51;96616.50;4993665;28;20038;-79
2022/06/28 10:27:26;;;;;;;2.78;1.20;;;;;;;24.48;74.99;96617.41;4994918;28;20038;-78
2022/06/28 10:29:57;;;;;;;2.35;1.08;;;;;;;24.60;73.90;96617.34;4975293;28;20076;-82
2022/06/28 10:32:45;;;;;;;3.67;1.50;;;;;;;24.63;71.01;96609.63;4987526;28;20034;-83
2022/06/28 10:35:36;;;;;;;4.07;1.15;;;;;;;24.66;69.32;96598.41;4993940;28;20499;-81
2022/06/28 10:38:08;;;;;;;2.95;1.50;;;;;;;24.02;69.81;96597.59;4990706;28;20033;-82
2022/06/28 10:40:45;;;;;;;1.73;1.30;;;;;;;23.61;74.39;96602.00;4998956;28;20038;-82
2022/06/28 10:43:11;;;;;;;3.95;1.50;;;;;;;23.73;75.41;96599.34;4995270;28;20038;-80
2022/06/28 10:46:05;;;;;;;5.18;1.40;;;;;;;23.33;75.48;96593.81;4993651;28;20061;-82
2022/06/28 10:48:56;;;;;;;3.20;1.60;;;;;;;23.96;76.91;96596.66;4974530;28;20034;-83
2022/06/28 10:51:22;;;;;;;3.70;1.65;;;;;;;24.42;73.69;96578.03;5036250;28;20106;-80
2022/06/28 10:54:06;;;;;;;1.38;1.20;;;;;;;23.98;70.58;96573.06;5008771;28;20093;-82
2022/06/28 10:56:41;;;;;;;1.70;1.20;;;;;;;24.84;73.79;96564.28;4997594;28;20048;-80
2022/06/28 10:59:10;;;;;;;2.53;1.20;;;;;;;25.00;69.68;96560.81;4982597;28;20422;-80
2022/06/28 11:01:44;;;;;;;2.00;1.10;;;;;;;24.70;69.11;96563.75;4970094;28;20038;-82
2022/06/28 11:04:12;;;;;;;1.65;1.20;;;;;;;24.50;69.30;96558.81;4996875;28;20149;-83
2022/06/28 11:06:47;;;;;;;1.77;1.25;;;;;;;25.34;68.26;96548.22;4999460;28;20034;-82
2022/06/28 11:09:23;;;;;;;2.50;1.05;;;;;;;24.68;67.24;96552.41;4993775;28;20084;-82
2022/06/28 11:12:16;;;;;;;1.83;1.20;;;;;;;25.42;64.23;96548.84;4986005;28;20022;-80
2022/06/28 11:14:51;;;;;;;4.30;1.00;;;;;;;25.49;63.37;96549.53;4985437;28;20035;-80
2022/06/28 11:17:28;;;;;;;1.85;1.10;;;;;;;24.90;61.57;96552.56;5006389;28;20042;-82
2022/06/28 11:19:57;;;;;;;2.45;1.00;;;;;;;24.96;60.49;96548.91;4987547;28;20038;-81
2022/06/28 11:22:34;;;;;;;2.83;1.00;;;;;;;24.48;61.25;96544.81;4993653;28;20030;-82
2022/06/28 11:25:03;;;;;;;3.85;0.90;;;;;;;24.98;60.90;96541.38;4994065;28;20030;-81
2022/06/28 11:27:29;;;;;;;2.28;1.00;;;;;;;25.19;57.00;96531.84;4998635;28;20514;-79
2022/06/28 11:30:03;;;;;;;1.83;0.90;;;;;;;25.44;58.38;96520.63;4994655;28;20033;-82
2022/06/28 11:32:38;;;;;;;4.30;0.90;;;;;;;25.69;57.40;96517.50;4976551;28;20030;-81
2022/06/28 11:35:13;;;;;;;2.03;1.10;;;;;;;26.12;55.05;96520.50;5001301;28;20085;-81
2022/06/28 11:37:48;;;;;;;1.75;1.00;;;;;;;25.95;54.02;96515.97;4992326;28;20185;-82
2022/06/28 11:40:15;;;;;;;1.98;0.93;;;;;;;26.12;54.62;96509.72;4980208;28;20034;-82
2022/06/28 11:42:42;;;;;;;1.00;0.70;;;;;;;26.41;50.56;96508.44;4977140;28;20031;-82
2022/06/28 11:45:11;;;;;;;1.63;0.98;;;;;;;26.37;51.24;96503.81;4982720;28;20092;-81
2022/06/28 11:47:41;;;;;;;1.33;0.80;;;;;;;26.36;52.57;96513.78;4989806;28;20094;-82
2022/06/28 11:50:11;;;;;;;1.63;1.05;;;;;;;25.83;51.32;96513.41;4996823;28;20116;-81